createdAt,value
2023-10-02T00:00:43.548Z,99.17
2023-10-02T00:03:11.652Z,99.43
2023-10-02T00:05:51.557Z,100.00
2023-10-02T00:08:38.616Z,100.00
2023-10-02T00:11:31.982Z,100.00
2023-10-02T00:14:19.880Z,100.00
2023-10-02T00:17:05.617Z,100.00
2023-10-02T00:19:39.711Z,100.00
2023-10-02T00:22:07.264Z,100.00
2023-10-02T00:24:42.017Z,100.00
2023-10-02T00:27:10.810Z,100.00
2023-10-02T00:29:59.178Z,100.00
2023-10-02T00:32:35.642Z,100.00
2023-10-02T00:35:04.329Z,100.00
2023-10-02T00:37:53.287Z,100.00
2023-10-02T00:40:26.326Z,100.00
2023-10-02T00:43:00.272Z,100.00
2023-10-02T00:45:39.749Z,100.00
2023-10-02T00:48:26.081Z,100.00
2023-10-02T00:51:01.436Z,100.00
2023-10-02T00:53:41.225Z,100.00
2023-10-02T00:56:25.366Z,100.00
2023-10-02T00:59:01.556Z,100.00
2023-10-02T01:01:31.078Z,100.00
2023-10-02T01:04:13.155Z,100.00
2023-10-02T01:07:04.080Z,100.00
2023-10-02T01:09:31.832Z,100.00
2023-10-02T01:11:59.759Z,100.00
2023-10-02T01:14:49.775Z,100.00
2023-10-02T01:17:23.750Z,100.00
2023-10-02T01:19:54.718Z,100.00
2023-10-02T01:22:27.889Z,100.00
2023-10-02T01:25:17.838Z,100.00
2023-10-02T01:27:49.338Z,100.00
2023-10-02T01:30:19.919Z,100.00
2023-10-02T01:33:23.005Z,100.00
2023-10-02T01:35:56.509Z,100.00
2023-10-02T01:38:33.308Z,100.00
2023-10-02T01:41:11.639Z,100.00
2023-10-02T01:43:45.743Z,100.00
2023-10-02T01:46:23.741Z,100.00
2023-10-02T01:48:52.334Z,100.00
2023-10-02T01:51:22.478Z,100.00
2023-10-02T01:53:52.672Z,100.00
2023-10-02T01:56:21.457Z,100.00
2023-10-02T01:58:52.475Z,100.00
2023-10-02T02:01:22.586Z,100.00
2023-10-02T02:03:52.002Z,100.00
2023-10-02T02:06:22.588Z,100.00
2023-10-02T02:08:54.411Z,100.00
2023-10-02T02:11:24.181Z,100.00
2023-10-02T02:13:53.169Z,100.00
2023-10-02T02:16:40.095Z,100.00
2023-10-02T02:19:09.201Z,100.00
2023-10-02T02:21:37.564Z,100.00
2023-10-02T02:24:08.262Z,100.00
2023-10-02T02:26:40.501Z,100.00
2023-10-02T02:29:28.098Z,100.00
2023-10-02T02:31:56.744Z,100.00
2023-10-02T02:34:25.030Z,100.00
2023-10-02T02:36:55.640Z,100.00
2023-10-02T02:39:24.325Z,100.00
2023-10-02T02:42:10.312Z,100.00
2023-10-02T02:44:47.590Z,100.00
2023-10-02T02:47:17.378Z,100.00
2023-10-02T02:49:50.457Z,100.00
2023-10-02T02:52:28.230Z,100.00
2023-10-02T02:55:01.429Z,100.00
2023-10-02T02:57:32.585Z,100.00
2023-10-02T03:00:22.687Z,100.00
2023-10-02T03:02:53.975Z,100.00
2023-10-02T03:05:24.139Z,100.00
2023-10-02T03:07:56.064Z,100.00
2023-10-02T03:10:25.374Z,100.00
2023-10-02T03:12:55.195Z,100.00
2023-10-02T03:15:46.325Z,100.00
2023-10-02T03:18:24.834Z,100.00
2023-10-02T03:20:53.535Z,100.00
2023-10-02T03:23:21.406Z,100.00
2023-10-02T03:25:49.142Z,100.00
2023-10-02T03:28:34.795Z,100.00
2023-10-02T03:31:02.522Z,100.00
2023-10-02T03:33:32.876Z,100.00
2023-10-02T03:36:10.592Z,100.00
2023-10-02T03:38:45.357Z,100.00
2023-10-02T03:41:14.954Z,100.00
2023-10-02T03:43:47.787Z,100.00
2023-10-02T03:46:37.232Z,100.00
2023-10-02T03:49:07.559Z,100.00
2023-10-02T03:51:38.120Z,100.00
2023-10-02T03:54:20.139Z,100.00
2023-10-02T03:56:50.436Z,100.00
2023-10-02T03:59:24.159Z,100.00
2023-10-02T04:01:51.946Z,100.00
2023-10-02T04:04:20.349Z,100.00
2023-10-02T04:06:48.796Z,100.00
2023-10-02T04:09:19.180Z,100.00
2023-10-02T04:11:47.118Z,100.00
2023-10-02T04:14:24.300Z,100.00
2023-10-02T04:17:10.149Z,100.00
2023-10-02T04:19:44.405Z,100.00
2023-10-02T04:22:23.286Z,100.00
2023-10-02T04:25:00.386Z,100.00
2023-10-02T04:27:45.576Z,100.00
2023-10-02T04:30:14.948Z,100.00
2023-10-02T04:32:53.398Z,100.00
2023-10-02T04:35:39.320Z,100.00
2023-10-02T04:38:10.432Z,100.00
2023-10-02T04:40:39.388Z,100.00
2023-10-02T04:43:20.751Z,100.00
2023-10-02T04:46:09.780Z,100.00
2023-10-02T04:48:41.007Z,100.00
2023-10-02T04:51:13.441Z,100.00
2023-10-02T04:53:47.091Z,100.00
2023-10-02T04:56:20.560Z,100.00
2023-10-02T04:58:52.217Z,100.00
2023-10-02T05:01:36.280Z,100.00
2023-10-02T05:04:04.867Z,100.00
2023-10-02T05:06:51.395Z,100.00
2023-10-02T05:09:26.302Z,100.00
2023-10-02T05:11:56.943Z,100.00
2023-10-02T05:14:31.189Z,100.00
2023-10-02T05:17:21.623Z,100.00
2023-10-02T05:20:02.338Z,100.00
2023-10-02T05:22:32.385Z,100.00
2023-10-02T05:25:01.472Z,100.00
2023-10-02T05:27:31.384Z,100.00
2023-10-02T05:30:14.042Z,100.00
2023-10-02T05:32:42.398Z,100.00
2023-10-02T05:35:15.998Z,100.00
2023-10-02T05:37:47.028Z,100.00
2023-10-02T05:40:20.591Z,100.00
2023-10-02T05:43:10.516Z,100.00
2023-10-02T05:45:46.770Z,100.00
2023-10-02T05:48:29.143Z,100.00
2023-10-02T05:50:58.546Z,100.00
2023-10-02T05:53:27.702Z,100.00
2023-10-02T05:55:58.748Z,100.00
2023-10-02T05:58:33.103Z,100.00
2023-10-02T06:01:08.075Z,100.00
2023-10-02T06:03:38.474Z,100.00
2023-10-02T06:06:22.776Z,99.81
2023-10-02T06:09:13.972Z,98.70
2023-10-02T06:12:01.175Z,96.20
2023-10-02T06:14:29.076Z,93.86
2023-10-02T06:16:59.557Z,92.59
2023-10-02T06:19:26.696Z,92.04
2023-10-02T06:22:00.257Z,91.67
2023-10-02T06:24:30.359Z,91.27
2023-10-02T06:27:15.042Z,89.00
2023-10-02T06:29:48.580Z,87.43
2023-10-02T06:32:25.203Z,86.97
2023-10-02T06:34:52.823Z,84.28
2023-10-02T06:37:25.977Z,82.79
2023-10-02T06:40:08.269Z,81.65
2023-10-02T06:42:49.453Z,80.75
2023-10-02T06:45:22.179Z,82.73
2023-10-02T06:47:50.358Z,83.68
2023-10-02T06:50:32.583Z,88.21
2023-10-02T06:53:00.689Z,87.30
2023-10-02T06:55:34.073Z,86.62
2023-10-02T06:58:04.118Z,86.82
2023-10-02T07:00:49.834Z,85.15
2023-10-02T07:03:19.172Z,85.02
2023-10-02T07:05:46.672Z,85.36
2023-10-02T07:08:20.319Z,83.63
2023-10-02T07:10:49.431Z,82.73
2023-10-02T07:13:24.766Z,84.71
2023-10-02T07:15:58.043Z,83.17
2023-10-02T07:18:39.346Z,85.42
2023-10-02T07:21:09.154Z,83.48
2023-10-02T07:23:40.131Z,84.01
2023-10-02T07:26:15.944Z,83.25
2023-10-02T07:28:51.795Z,83.46
2023-10-02T07:31:23.079Z,80.28
2023-10-02T07:33:55.906Z,81.27
2023-10-02T07:36:27.808Z,81.30
2023-10-02T07:38:55.884Z,79.53
2023-10-02T07:41:27.162Z,80.49
2023-10-02T07:44:08.394Z,78.83
2023-10-02T07:46:37.930Z,79.95
2023-10-02T07:49:06.772Z,78.91
2023-10-02T07:51:41.125Z,79.72
2023-10-02T07:54:08.933Z,78.66
2023-10-02T07:56:37.171Z,78.09
2023-10-02T07:59:05.425Z,77.48
2023-10-02T08:01:35.473Z,75.85
2023-10-02T08:04:04.093Z,77.74
2023-10-02T08:06:38.083Z,75.95
2023-10-02T08:09:26.119Z,75.93
2023-10-02T08:11:54.926Z,77.51
2023-10-02T08:14:43.048Z,75.90
2023-10-02T08:17:31.468Z,74.23
2023-10-02T08:20:17.354Z,73.55
2023-10-02T08:22:49.382Z,73.24
2023-10-02T08:25:17.656Z,72.04
2023-10-02T08:27:46.152Z,72.26
2023-10-02T08:30:32.105Z,70.37
2023-10-02T08:33:13.734Z,68.79
2023-10-02T08:35:59.599Z,69.69
2023-10-02T08:38:27.964Z,71.89
2023-10-02T08:41:00.479Z,68.97
2023-10-02T08:43:31.049Z,67.50
2023-10-02T08:45:59.071Z,68.98
2023-10-02T08:48:26.954Z,71.04
2023-10-02T08:50:58.848Z,68.32
2023-10-02T08:53:27.498Z,70.18
2023-10-02T08:56:22.707Z,70.03
2023-10-02T08:59:12.098Z,68.55
2023-10-02T09:01:39.473Z,68.47
2023-10-02T09:04:28.680Z,67.53
2023-10-02T09:07:00.906Z,66.98
2023-10-02T09:09:37.461Z,64.30
2023-10-02T09:12:10.090Z,60.17
2023-10-02T09:14:41.614Z,59.97
2023-10-02T09:17:18.304Z,62.05
2023-10-02T09:19:54.432Z,62.78
2023-10-02T09:22:24.426Z,61.46
2023-10-02T09:25:27.955Z,58.48
2023-10-02T09:28:05.500Z,57.19
2023-10-02T09:30:37.148Z,54.10
2023-10-02T09:33:17.211Z,52.43
2023-10-02T09:36:49.414Z,51.69
2023-10-02T09:38:47.613Z,55.93
2023-10-02T09:41:16.969Z,54.95
2023-10-02T09:43:45.432Z,52.38
2023-10-02T09:46:17.472Z,55.89
2023-10-02T09:48:53.147Z,54.71
2023-10-02T09:51:27.610Z,51.69
2023-10-02T09:54:07.187Z,53.53
2023-10-02T09:57:07.112Z,56.29
2023-10-02T09:59:49.310Z,56.36
2023-10-02T10:02:24.486Z,56.25
2023-10-02T10:05:23.744Z,56.08
2023-10-02T10:07:59.875Z,58.70
2023-10-02T10:10:49.423Z,58.21
2023-10-02T10:13:47.913Z,56.37
2023-10-02T10:16:35.353Z,56.77
2023-10-02T10:19:08.312Z,57.16
2023-10-02T10:21:57.885Z,56.38
2023-10-02T10:25:21.258Z,55.34
2023-10-02T10:28:05.954Z,55.33
2023-10-02T10:30:42.423Z,54.96
2023-10-02T10:33:12.871Z,55.76
2023-10-02T10:35:53.311Z,55.77
2023-10-02T10:38:28.200Z,56.07
2023-10-02T10:41:01.973Z,55.22
2023-10-02T10:43:45.415Z,53.67
2023-10-02T10:46:19.083Z,53.21
2023-10-02T10:48:50.034Z,53.90
2023-10-02T10:51:23.579Z,52.84
2023-10-02T10:54:01.851Z,54.62
2023-10-02T10:56:29.703Z,54.23
2023-10-02T10:59:12.296Z,53.16
2023-10-02T11:02:11.331Z,52.62
2023-10-02T11:04:50.402Z,52.65
2023-10-02T11:07:24.198Z,52.45
2023-10-02T11:10:17.644Z,52.63
2023-10-02T11:13:01.050Z,53.67
2023-10-02T11:15:47.384Z,51.77
2023-10-02T11:18:20.319Z,52.55
2023-10-02T11:20:52.825Z,52.00
2023-10-02T11:23:41.944Z,51.85
2023-10-02T11:26:15.302Z,53.09
2023-10-02T11:28:46.050Z,52.60
2023-10-02T11:31:33.482Z,52.65
2023-10-02T11:34:31.818Z,51.40
2023-10-02T11:36:57.269Z,52.94
2023-10-02T11:39:34.962Z,53.07
2023-10-02T11:42:07.170Z,52.90
2023-10-02T11:44:34.979Z,52.20
2023-10-02T11:47:03.020Z,51.58
2023-10-02T11:49:37.456Z,52.58
2023-10-02T11:52:05.868Z,51.33
2023-10-02T11:54:43.141Z,52.40
2023-10-02T11:57:13.857Z,53.02
2023-10-02T11:59:44.591Z,54.66
2023-10-02T12:02:12.752Z,53.98
2023-10-02T12:04:41.612Z,51.82
2023-10-02T12:07:11.287Z,52.00
2023-10-02T12:09:39.701Z,52.22
2023-10-02T12:12:12.529Z,52.61
2023-10-02T12:14:44.079Z,50.86
2023-10-02T12:17:16.163Z,50.65
2023-10-02T12:19:46.686Z,52.22
2023-10-02T12:22:14.583Z,51.19
2023-10-02T12:24:42.369Z,50.84
2023-10-02T12:27:13.303Z,51.19
2023-10-02T12:29:41.813Z,51.15
2023-10-02T12:32:11.561Z,51.18
2023-10-02T12:34:42.675Z,50.58
2023-10-02T12:37:11.205Z,49.76
2023-10-02T12:39:38.871Z,50.04
2023-10-02T12:42:06.430Z,49.86
2023-10-02T12:44:38.355Z,50.35
2023-10-02T12:47:06.442Z,49.25
2023-10-02T12:49:36.245Z,49.80
2023-10-02T12:52:03.826Z,49.35
2023-10-02T12:54:31.615Z,51.15
2023-10-02T12:57:00.937Z,49.29
2023-10-02T12:59:28.964Z,48.77
2023-10-02T13:01:57.228Z,50.08
2023-10-02T13:04:25.563Z,49.78
2023-10-02T13:06:54.900Z,49.63
2023-10-02T13:09:22.588Z,48.28
2023-10-02T13:11:52.561Z,48.78
2023-10-02T13:14:20.708Z,48.68
2023-10-02T13:16:50.015Z,49.93
2023-10-02T13:19:18.659Z,48.00
2023-10-02T13:21:53.498Z,48.03
2023-10-02T13:24:24.968Z,47.13
2023-10-02T13:26:55.915Z,48.26
2023-10-02T13:29:25.387Z,47.53
2023-10-02T13:31:53.434Z,48.24
2023-10-02T13:34:21.878Z,48.85
2023-10-02T13:36:49.815Z,46.07
2023-10-02T13:39:19.199Z,47.44
2023-10-02T13:41:47.142Z,47.50
2023-10-02T13:44:19.161Z,47.36
2023-10-02T13:46:49.446Z,47.80
2023-10-02T13:49:20.702Z,47.13
2023-10-02T13:51:49.030Z,49.04
2023-10-02T13:54:16.611Z,49.54
2023-10-02T13:56:45.162Z,50.98
2023-10-02T13:59:12.824Z,48.71
2023-10-02T14:01:40.684Z,47.52
2023-10-02T14:04:11.453Z,49.14
2023-10-02T14:06:39.009Z,47.47
2023-10-02T14:09:11.373Z,47.63
2023-10-02T14:11:41.429Z,47.68
2023-10-02T14:14:09.678Z,47.01
2023-10-02T14:16:37.894Z,45.23
2023-10-02T14:19:07.927Z,46.61
2023-10-02T14:21:36.089Z,45.93
2023-10-02T14:24:06.232Z,45.27
2023-10-02T14:26:35.730Z,46.42
2023-10-02T14:29:03.708Z,47.51
2023-10-02T14:31:33.397Z,49.42
2023-10-02T14:34:02.629Z,48.28
2023-10-02T14:36:31.022Z,48.16
2023-10-02T14:38:59.972Z,47.29
2023-10-02T14:41:28.818Z,46.90
2023-10-02T14:43:58.566Z,46.83
2023-10-02T14:46:26.317Z,46.52
2023-10-02T14:48:54.619Z,46.73
2023-10-02T14:51:23.750Z,47.48
2023-10-02T14:53:52.055Z,46.82
2023-10-02T14:56:22.842Z,48.38
2023-10-02T14:58:51.529Z,48.05
2023-10-02T15:01:21.127Z,48.33
2023-10-02T15:03:52.646Z,49.17
2023-10-02T15:06:23.002Z,48.05
2023-10-02T15:08:57.529Z,48.19
2023-10-02T15:11:25.624Z,47.80
2023-10-02T15:13:56.216Z,48.71
2023-10-02T15:16:23.854Z,48.58
2023-10-02T15:18:51.718Z,51.53
2023-10-02T15:21:20.545Z,49.83
2023-10-02T15:23:49.557Z,50.72
2023-10-02T15:26:19.270Z,51.22
2023-10-02T15:28:48.956Z,51.64
2023-10-02T15:31:16.994Z,52.92
2023-10-02T15:33:44.620Z,52.99
2023-10-02T15:36:16.911Z,54.32
2023-10-02T15:38:46.809Z,55.89
2023-10-02T15:41:30.454Z,55.65
2023-10-02T15:43:58.823Z,57.09
2023-10-02T15:46:28.291Z,58.01
2023-10-02T15:48:56.299Z,58.31
2023-10-02T15:51:26.371Z,58.82
2023-10-02T15:53:54.291Z,59.98
2023-10-02T15:56:25.206Z,60.68
2023-10-02T15:58:55.076Z,61.27
2023-10-02T16:01:23.584Z,62.44
2023-10-02T16:03:51.811Z,62.87
2023-10-02T16:06:20.182Z,64.28
2023-10-02T16:08:49.268Z,65.93
2023-10-02T16:11:22.436Z,65.26
2023-10-02T16:13:51.245Z,66.20
2023-10-02T16:16:23.757Z,66.69
2023-10-02T16:18:52.476Z,67.68
2023-10-02T16:21:24.486Z,68.30
2023-10-02T16:23:52.496Z,68.98
2023-10-02T16:26:23.506Z,69.26
2023-10-02T16:28:52.792Z,69.35
2023-10-02T16:31:26.721Z,69.02
2023-10-02T16:33:55.095Z,69.58
2023-10-02T16:36:30.495Z,70.35
2023-10-02T16:41:31.175Z,70.97
2023-10-02T16:43:59.496Z,71.09
2023-10-02T16:46:27.184Z,71.12
2023-10-02T16:48:55.136Z,71.60
2023-10-02T16:51:23.344Z,71.86
2023-10-02T16:53:50.899Z,71.85
2023-10-02T16:56:20.229Z,71.69
2023-10-02T16:58:47.864Z,71.73
2023-10-02T17:01:18.241Z,72.80
2023-10-02T17:03:46.842Z,73.03
2023-10-02T17:06:15.289Z,73.48
2023-10-02T17:08:42.589Z,74.46
2023-10-02T17:11:14.214Z,73.97
2023-10-02T17:13:42.210Z,73.84
2023-10-02T17:16:12.187Z,73.78
2023-10-02T17:18:40.231Z,73.67
2023-10-02T17:21:10.358Z,73.87
2023-10-02T17:23:42.000Z,73.80
2023-10-02T17:26:09.778Z,74.76
2023-10-02T17:28:39.531Z,74.35
2023-10-02T17:31:09.763Z,74.02
2023-10-02T17:33:44.077Z,73.47
2023-10-02T17:36:13.078Z,74.72
2023-10-02T17:38:41.781Z,75.10
2023-10-02T17:41:09.828Z,75.31
2023-10-02T17:43:37.767Z,75.54
2023-10-02T17:46:08.413Z,75.03
2023-10-02T17:48:36.324Z,75.30
2023-10-02T17:51:07.477Z,75.07
2023-10-02T17:53:35.851Z,75.37
2023-10-02T17:56:09.068Z,75.25
2023-10-02T17:58:37.833Z,75.37
2023-10-02T18:01:05.427Z,74.90
2023-10-02T18:03:33.533Z,75.30
2023-10-02T18:06:02.858Z,75.13
2023-10-02T18:08:32.005Z,74.92
2023-10-02T18:10:59.882Z,75.10
2023-10-02T18:13:31.542Z,75.40
2023-10-02T18:15:59.094Z,75.52
2023-10-02T18:18:28.002Z,75.92
2023-10-02T18:20:56.278Z,76.71
2023-10-02T18:23:23.885Z,76.48
2023-10-02T18:25:53.202Z,77.25
2023-10-02T18:28:20.846Z,77.68
2023-10-02T18:30:49.854Z,77.14
2023-10-02T18:33:19.990Z,77.06
2023-10-02T18:35:51.546Z,76.66
2023-10-02T18:38:20.116Z,77.21
2023-10-02T18:40:48.220Z,77.22
2023-10-02T18:43:21.428Z,77.48
2023-10-02T18:45:49.464Z,78.33
2023-10-02T18:48:17.233Z,78.49
2023-10-02T18:50:45.137Z,78.37
2023-10-02T18:53:15.942Z,78.66
2023-10-02T18:55:43.277Z,78.72
2023-10-02T18:58:13.194Z,79.30
2023-10-02T19:00:42.528Z,79.09
2023-10-02T19:03:09.972Z,78.77
2023-10-02T19:05:43.990Z,78.67
2023-10-02T19:08:12.984Z,79.19
2023-10-02T19:10:40.303Z,79.18
2023-10-02T19:13:09.249Z,80.17
2023-10-02T19:15:36.817Z,80.57
2023-10-02T19:18:04.988Z,81.24
2023-10-02T19:20:34.943Z,80.79
2023-10-02T19:23:02.787Z,80.36
2023-10-02T19:25:29.813Z,80.47
2023-10-02T19:27:56.876Z,80.26
2023-10-02T19:30:24.448Z,79.62
2023-10-02T19:32:52.327Z,79.47
2023-10-02T19:35:19.422Z,79.67
2023-10-02T19:37:47.262Z,80.35
2023-10-02T19:40:16.875Z,80.14
2023-10-02T19:42:45.244Z,80.27
2023-10-02T19:45:12.996Z,81.49
2023-10-02T19:47:40.115Z,81.78
2023-10-02T19:50:07.541Z,82.52
2023-10-02T19:52:34.899Z,82.96
2023-10-02T19:55:02.440Z,83.47
2023-10-02T19:57:29.774Z,84.25
2023-10-02T19:59:57.119Z,83.39
2023-10-02T20:02:24.169Z,84.83
2023-10-02T20:04:53.458Z,84.84
2023-10-02T20:07:20.545Z,84.61
2023-10-02T20:09:47.597Z,85.48
2023-10-02T20:12:15.316Z,85.63
2023-10-02T20:14:42.448Z,86.05
2023-10-02T20:17:10.230Z,86.21
2023-10-02T20:19:38.346Z,87.11
2023-10-02T20:22:09.486Z,86.90
2023-10-02T20:24:39.826Z,87.59
2023-10-02T20:27:09.100Z,87.81
2023-10-02T20:29:36.797Z,88.23
2023-10-02T20:32:04.562Z,88.16
2023-10-02T20:34:37.732Z,88.23
2023-10-02T20:37:09.541Z,87.32
2023-10-02T20:39:37.053Z,86.80
2023-10-02T20:42:04.671Z,87.31
2023-10-02T20:44:31.794Z,87.33
2023-10-02T20:47:14.052Z,89.16
2023-10-02T20:49:43.173Z,88.89
2023-10-02T20:52:11.342Z,89.26
2023-10-02T20:54:39.336Z,89.56
2023-10-02T20:57:07.460Z,89.39
2023-10-02T20:59:35.370Z,89.88
2023-10-02T21:02:03.052Z,91.86
2023-10-02T21:04:30.181Z,92.13
2023-10-02T21:06:58.987Z,92.06
2023-10-02T21:09:26.754Z,92.12
2023-10-02T21:11:54.127Z,92.44
2023-10-02T21:14:24.778Z,93.92
2023-10-02T21:16:52.031Z,94.40
2023-10-02T21:19:19.603Z,93.53
2023-10-02T21:21:52.810Z,93.55
2023-10-02T21:24:22.592Z,93.92
2023-10-02T21:26:50.783Z,93.25
2023-10-02T21:29:19.212Z,92.69
2023-10-02T21:31:46.848Z,94.14
2023-10-02T21:34:14.478Z,94.21
2023-10-02T21:36:42.839Z,94.33
2023-10-02T21:39:12.996Z,93.44
2023-10-02T21:41:40.422Z,94.40
2023-10-02T21:44:08.217Z,94.31
2023-10-02T21:46:36.423Z,94.50
2023-10-02T21:49:04.942Z,93.51
2023-10-02T21:51:32.498Z,94.02
2023-10-02T21:54:00.091Z,93.64
2023-10-02T21:56:31.141Z,93.22
2023-10-02T21:58:58.495Z,92.64
2023-10-02T22:04:55.809Z,94.01
2023-10-02T22:07:23.680Z,93.87
2023-10-02T22:09:51.255Z,93.95
2023-10-02T22:12:18.809Z,94.47
2023-10-02T22:14:49.150Z,93.35
2023-10-02T22:17:16.858Z,92.92
2023-10-02T22:19:44.466Z,93.82
2023-10-02T22:22:13.474Z,94.01
2023-10-02T22:24:43.890Z,94.13
2023-10-02T22:27:15.151Z,94.21
2023-10-02T22:29:42.720Z,94.36
2023-10-02T22:32:10.278Z,95.57
2023-10-02T22:34:42.096Z,95.44
2023-10-02T22:37:15.008Z,94.77
2023-10-02T22:39:43.194Z,95.04
2023-10-02T22:42:12.815Z,94.46
2023-10-02T22:44:41.834Z,95.94
2023-10-02T22:47:09.870Z,94.79
2023-10-02T22:49:37.479Z,95.72
2023-10-02T22:52:05.066Z,95.96
2023-10-02T22:54:32.921Z,96.41
2023-10-02T22:57:00.762Z,96.46
2023-10-02T22:59:28.440Z,96.95
2023-10-02T23:02:00.576Z,98.52
2023-10-02T23:04:28.776Z,97.88
2023-10-02T23:06:56.797Z,97.60
2023-10-02T23:09:25.738Z,98.78
2023-10-02T23:11:53.505Z,99.61
2023-10-02T23:14:24.001Z,100.00
2023-10-02T23:16:53.960Z,99.10
2023-10-02T23:19:25.609Z,98.66
2023-10-02T23:21:53.216Z,98.22
2023-10-02T23:24:20.992Z,98.98
2023-10-02T23:26:48.851Z,99.38
2023-10-02T23:29:16.489Z,99.55
2023-10-02T23:31:44.224Z,99.93
2023-10-02T23:34:13.069Z,99.53
2023-10-02T23:36:40.856Z,99.37
2023-10-02T23:39:10.366Z,99.17
2023-10-02T23:41:38.947Z,98.68
2023-10-02T23:44:06.808Z,98.55
2023-10-02T23:46:35.264Z,98.40
2023-10-02T23:49:03.556Z,98.35
2023-10-02T23:51:32.801Z,97.92
2023-10-02T23:54:00.561Z,97.45
2023-10-02T23:56:28.635Z,96.75
2023-10-02T23:58:57.409Z,96.13
